sensor_id;sensor_type;location;lat;lon;timestamp;temperature;humidity
29547;DHT22;40782;47.264;11.330;2023-11-18T00:00:41;3.60;99.90
29547;DHT22;40782;47.264;11.330;2023-11-18T00:03:08;3.60;99.90
29547;DHT22;40782;47.264;11.330;2023-11-18T00:05:37;3.60;99.90
29547;DHT22;40782;47.264;11.330;2023-11-18T00:08:04;3.60;99.90
29547;DHT22;40782;47.264;11.330;2023-11-18T00:10:31;3.70;99.90
29547;DHT22;40782;47.264;11.330;2023-11-18T00:12:58;3.60;99.90
29547;DHT22;40782;47.264;11.330;2023-11-18T00:15:27;3.60;99.90
29547;DHT22;40782;47.264;11.330;2023-11-18T00:17:54;3.60;99.90
29547;DHT22;40782;47.264;11.330;2023-11-18T00:20:21;3.60;99.90
29547;DHT22;40782;47.264;11.330;2023-11-18T00:22:51;3.60;99.90
29547;DHT22;40782;47.264;11.330;2023-11-18T00:25:18;3.60;99.90
29547;DHT22;40782;47.264;11.330;2023-11-18T00:27:45;3.60;99.90
29547;DHT22;40782;47.264;11.330;2023-11-18T00:30:13;3.60;99.90
29547;DHT22;40782;47.264;11.330;2023-11-18T00:32:40;3.60;99.90
29547;DHT22;40782;47.264;11.330;2023-11-18T00:35:07;3.60;99.90
29547;DHT22;40782;47.264;11.330;2023-11-18T00:37:35;3.60;99.90
29547;DHT22;40782;47.264;11.330;2023-11-18T00:40:05;3.70;99.90
29547;DHT22;40782;47.264;11.330;2023-11-18T00:42:32;3.70;99.90
29547;DHT22;40782;47.264;11.330;2023-11-18T00:44:59;3.70;99.90
29547;DHT22;40782;47.264;11.330;2023-11-18T00:47:26;3.70;99.90
29547;DHT22;40782;47.264;11.330;2023-11-18T00:49:54;3.70;99.90
29547;DHT22;40782;47.264;11.330;2023-11-18T00:52:21;3.70;99.90
29547;DHT22;40782;47.264;11.330;2023-11-18T00:54:48;3.70;99.90
29547;DHT22;40782;47.264;11.330;2023-11-18T00:57:16;3.70;99.90
29547;DHT22;40782;47.264;11.330;2023-11-18T00:59:43;3.70;99.90
29547;DHT22;40782;47.264;11.330;2023-11-18T01:02:10;3.70;99.90
29547;DHT22;40782;47.264;11.330;2023-11-18T01:04:38;3.60;99.90
29547;DHT22;40782;47.264;11.330;2023-11-18T01:07:06;3.60;99.90
29547;DHT22;40782;47.264;11.330;2023-11-18T01:09:34;3.70;99.90
29547;DHT22;40782;47.264;11.330;2023-11-18T01:12:04;3.70;99.90
29547;DHT22;40782;47.264;11.330;2023-11-18T01:14:36;3.70;99.90
29547;DHT22;40782;47.264;11.330;2023-11-18T01:17:04;3.70;99.90
29547;DHT22;40782;47.264;11.330;2023-11-18T01:19:31;3.70;99.90
29547;DHT22;40782;47.264;11.330;2023-11-18T01:21:59;3.70;99.90
29547;DHT22;40782;47.264;11.330;2023-11-18T01:24:26;3.70;99.90
29547;DHT22;40782;47.264;11.330;2023-11-18T01:26:54;3.70;99.90
29547;DHT22;40782;47.264;11.330;2023-11-18T01:29:21;3.80;99.90
29547;DHT22;40782;47.264;11.330;2023-11-18T01:31:51;3.70;99.90
29547;DHT22;40782;47.264;11.330;2023-11-18T01:34:20;3.70;99.90
29547;DHT22;40782;47.264;11.330;2023-11-18T01:36:48;3.70;99.90
29547;DHT22;40782;47.264;11.330;2023-11-18T01:39:15;3.70;99.90
29547;DHT22;40782;47.264;11.330;2023-11-18T01:41:43;3.70;99.90
29547;DHT22;40782;47.264;11.330;2023-11-18T01:44:10;3.80;99.90
29547;DHT22;40782;47.264;11.330;2023-11-18T01:46:39;3.80;99.90
29547;DHT22;40782;47.264;11.330;2023-11-18T01:49:11;3.80;99.90
29547;DHT22;40782;47.264;11.330;2023-11-18T01:51:40;3.80;99.90
29547;DHT22;40782;47.264;11.330;2023-11-18T01:54:07;3.80;99.90
29547;DHT22;40782;47.264;11.330;2023-11-18T01:56:34;3.80;99.90
29547;DHT22;40782;47.264;11.330;2023-11-18T01:59:02;3.80;99.90
29547;DHT22;40782;47.264;11.330;2023-11-18T02:01:30;3.80;99.90
29547;DHT22;40782;47.264;11.330;2023-11-18T02:03:57;3.80;99.90
29547;DHT22;40782;47.264;11.330;2023-11-18T02:06:26;3.80;99.90
29547;DHT22;40782;47.264;11.330;2023-11-18T02:08:53;3.80;99.90
29547;DHT22;40782;47.264;11.330;2023-11-18T02:11:32;3.80;99.90
29547;DHT22;40782;47.264;11.330;2023-11-18T02:14:07;3.70;99.90
29547;DHT22;40782;47.264;11.330;2023-11-18T02:16:36;3.80;99.90
29547;DHT22;40782;47.264;11.330;2023-11-18T02:19:04;3.80;99.90
29547;DHT22;40782;47.264;11.330;2023-11-18T02:21:36;3.80;99.90
29547;DHT22;40782;47.264;11.330;2023-11-18T02:24:04;3.80;99.90
29547;DHT22;40782;47.264;11.330;2023-11-18T02:26:32;3.80;99.90
29547;DHT22;40782;47.264;11.330;2023-11-18T02:28:59;3.80;99.90
29547;DHT22;40782;47.264;11.330;2023-11-18T02:31:27;3.90;99.90
29547;DHT22;40782;47.264;11.330;2023-11-18T02:33:59;3.80;99.90
29547;DHT22;40782;47.264;11.330;2023-11-18T02:36:30;3.80;99.90
29547;DHT22;40782;47.264;11.330;2023-11-18T02:39:02;3.80;99.90
29547;DHT22;40782;47.264;11.330;2023-11-18T02:41:34;3.80;99.90
29547;DHT22;40782;47.264;11.330;2023-11-18T02:44:01;3.80;99.90
29547;DHT22;40782;47.264;11.330;2023-11-18T02:46:34;3.80;99.90
29547;DHT22;40782;47.264;11.330;2023-11-18T02:49:01;3.80;99.90
29547;DHT22;40782;47.264;11.330;2023-11-18T02:51:29;3.80;99.90
29547;DHT22;40782;47.264;11.330;2023-11-18T02:53:56;3.80;99.90
29547;DHT22;40782;47.264;11.330;2023-11-18T02:56:23;3.90;99.90
29547;DHT22;40782;47.264;11.330;2023-11-18T02:58:52;3.90;99.90
29547;DHT22;40782;47.264;11.330;2023-11-18T03:01:19;3.90;99.90
29547;DHT22;40782;47.264;11.330;2023-11-18T03:03:46;3.90;99.90
29547;DHT22;40782;47.264;11.330;2023-11-18T03:06:13;3.90;99.90
29547;DHT22;40782;47.264;11.330;2023-11-18T03:08:41;3.90;99.90
29547;DHT22;40782;47.264;11.330;2023-11-18T03:11:08;3.90;99.90
29547;DHT22;40782;47.264;11.330;2023-11-18T03:13:35;3.90;99.90
29547;DHT22;40782;47.264;11.330;2023-11-18T03:16:07;3.80;99.90
29547;DHT22;40782;47.264;11.330;2023-11-18T03:18:38;3.80;99.90
29547;DHT22;40782;47.264;11.330;2023-11-18T03:21:06;3.80;99.90
29547;DHT22;40782;47.264;11.330;2023-11-18T03:23:33;3.80;99.90
29547;DHT22;40782;47.264;11.330;2023-11-18T03:26:00;3.80;99.90
29547;DHT22;40782;47.264;11.330;2023-11-18T03:28:27;3.90;99.90
29547;DHT22;40782;47.264;11.330;2023-11-18T03:30:54;3.90;99.90
29547;DHT22;40782;47.264;11.330;2023-11-18T03:33:22;3.90;99.90
29547;DHT22;40782;47.264;11.330;2023-11-18T03:35:50;3.90;99.90
29547;DHT22;40782;47.264;11.330;2023-11-18T03:38:17;3.90;99.90
29547;DHT22;40782;47.264;11.330;2023-11-18T03:40:45;3.90;99.90
29547;DHT22;40782;47.264;11.330;2023-11-18T03:43:12;3.90;99.90
29547;DHT22;40782;47.264;11.330;2023-11-18T03:45:39;3.80;99.90
29547;DHT22;40782;47.264;11.330;2023-11-18T03:48:06;3.90;99.90
29547;DHT22;40782;47.264;11.330;2023-11-18T03:50:35;3.90;99.90
29547;DHT22;40782;47.264;11.330;2023-11-18T03:53:02;3.80;99.90
29547;DHT22;40782;47.264;11.330;2023-11-18T03:55:29;3.80;99.90
29547;DHT22;40782;47.264;11.330;2023-11-18T03:57:56;3.80;99.90
29547;DHT22;40782;47.264;11.330;2023-11-18T04:00:23;3.80;99.90
29547;DHT22;40782;47.264;11.330;2023-11-18T04:02:55;3.80;99.90
29547;DHT22;40782;47.264;11.330;2023-11-18T04:05:22;3.80;99.90
29547;DHT22;40782;47.264;11.330;2023-11-18T04:07:50;3.80;99.90
29547;DHT22;40782;47.264;11.330;2023-11-18T04:10:18;3.80;99.90
29547;DHT22;40782;47.264;11.330;2023-11-18T04:12:46;3.80;99.90
29547;DHT22;40782;47.264;11.330;2023-11-18T04:15:14;3.80;99.90
29547;DHT22;40782;47.264;11.330;2023-11-18T04:17:41;3.80;99.90
29547;DHT22;40782;47.264;11.330;2023-11-18T04:20:10;3.90;99.90
29547;DHT22;40782;47.264;11.330;2023-11-18T04:22:37;3.90;99.90
29547;DHT22;40782;47.264;11.330;2023-11-18T04:25:06;3.90;99.90
29547;DHT22;40782;47.264;11.330;2023-11-18T04:27:34;3.90;99.90
29547;DHT22;40782;47.264;11.330;2023-11-18T04:30:01;3.90;99.90
29547;DHT22;40782;47.264;11.330;2023-11-18T04:32:28;3.90;99.90
29547;DHT22;40782;47.264;11.330;2023-11-18T04:34:58;4.00;99.90
29547;DHT22;40782;47.264;11.330;2023-11-18T04:37:25;4.00;99.90
29547;DHT22;40782;47.264;11.330;2023-11-18T04:39:53;3.90;99.90
29547;DHT22;40782;47.264;11.330;2023-11-18T04:42:22;3.90;99.90
29547;DHT22;40782;47.264;11.330;2023-11-18T04:44:49;3.80;99.90
29547;DHT22;40782;47.264;11.330;2023-11-18T04:47:16;3.80;99.90
29547;DHT22;40782;47.264;11.330;2023-11-18T04:49:44;3.80;99.90
29547;DHT22;40782;47.264;11.330;2023-11-18T04:52:11;3.80;99.90
29547;DHT22;40782;47.264;11.330;2023-11-18T04:54:38;3.90;99.90
29547;DHT22;40782;47.264;11.330;2023-11-18T04:57:05;3.90;99.90
29547;DHT22;40782;47.264;11.330;2023-11-18T04:59:36;4.00;99.90
29547;DHT22;40782;47.264;11.330;2023-11-18T05:02:03;4.00;99.90
29547;DHT22;40782;47.264;11.330;2023-11-18T05:04:30;3.90;99.90
29547;DHT22;40782;47.264;11.330;2023-11-18T05:06:57;3.90;99.90
29547;DHT22;40782;47.264;11.330;2023-11-18T05:09:24;3.90;99.90
29547;DHT22;40782;47.264;11.330;2023-11-18T05:11:51;3.90;99.90
29547;DHT22;40782;47.264;11.330;2023-11-18T05:14:19;3.90;99.90
29547;DHT22;40782;47.264;11.330;2023-11-18T05:16:48;3.90;99.90
29547;DHT22;40782;47.264;11.330;2023-11-18T05:19:15;3.90;99.90
29547;DHT22;40782;47.264;11.330;2023-11-18T05:21:42;4.00;99.90
29547;DHT22;40782;47.264;11.330;2023-11-18T05:24:09;4.00;99.90
29547;DHT22;40782;47.264;11.330;2023-11-18T05:26:36;3.90;99.90
29547;DHT22;40782;47.264;11.330;2023-11-18T05:29:03;3.90;99.90
29547;DHT22;40782;47.264;11.330;2023-11-18T05:31:31;3.90;99.90
29547;DHT22;40782;47.264;11.330;2023-11-18T05:34:00;3.90;99.90
29547;DHT22;40782;47.264;11.330;2023-11-18T05:36:28;3.90;99.90
29547;DHT22;40782;47.264;11.330;2023-11-18T05:38:56;3.90;99.90
29547;DHT22;40782;47.264;11.330;2023-11-18T05:41:23;3.90;99.90
29547;DHT22;40782;47.264;11.330;2023-11-18T05:43:56;3.90;99.90
29547;DHT22;40782;47.264;11.330;2023-11-18T05:46:24;3.80;99.90
29547;DHT22;40782;47.264;11.330;2023-11-18T05:48:54;3.80;99.90
29547;DHT22;40782;47.264;11.330;2023-11-18T05:51:23;3.80;99.90
29547;DHT22;40782;47.264;11.330;2023-11-18T05:53:50;3.80;99.90
29547;DHT22;40782;47.264;11.330;2023-11-18T05:56:18;3.80;99.90
29547;DHT22;40782;47.264;11.330;2023-11-18T05:58:47;3.80;99.90
29547;DHT22;40782;47.264;11.330;2023-11-18T06:01:15;3.80;99.90
29547;DHT22;40782;47.264;11.330;2023-11-18T06:03:42;3.80;99.90
29547;DHT22;40782;47.264;11.330;2023-11-18T06:06:10;3.80;99.90
29547;DHT22;40782;47.264;11.330;2023-11-18T06:08:39;3.80;99.90
29547;DHT22;40782;47.264;11.330;2023-11-18T06:11:06;3.80;99.90
29547;DHT22;40782;47.264;11.330;2023-11-18T06:13:39;3.80;99.90
29547;DHT22;40782;47.264;11.330;2023-11-18T06:16:09;3.90;99.90
29547;DHT22;40782;47.264;11.330;2023-11-18T06:18:40;3.90;99.90
29547;DHT22;40782;47.264;11.330;2023-11-18T06:21:12;3.90;99.90
29547;DHT22;40782;47.264;11.330;2023-11-18T06:23:41;3.90;99.90
29547;DHT22;40782;47.264;11.330;2023-11-18T06:26:08;3.90;99.90
29547;DHT22;40782;47.264;11.330;2023-11-18T06:28:38;3.80;99.90
29547;DHT22;40782;47.264;11.330;2023-11-18T06:31:05;3.80;99.90
29547;DHT22;40782;47.264;11.330;2023-11-18T06:33:37;3.80;99.90
29547;DHT22;40782;47.264;11.330;2023-11-18T06:36:06;3.80;99.90
29547;DHT22;40782;47.264;11.330;2023-11-18T06:38:33;3.70;99.90
29547;DHT22;40782;47.264;11.330;2023-11-18T06:41:01;3.70;99.90
29547;DHT22;40782;47.264;11.330;2023-11-18T06:43:30;3.70;99.90
29547;DHT22;40782;47.264;11.330;2023-11-18T06:46:12;3.70;99.90
29547;DHT22;40782;47.264;11.330;2023-11-18T06:48:39;3.60;99.90
29547;DHT22;40782;47.264;11.330;2023-11-18T06:51:07;3.60;99.90
29547;DHT22;40782;47.264;11.330;2023-11-18T06:53:34;3.60;99.90
29547;DHT22;40782;47.264;11.330;2023-11-18T06:56:03;3.60;99.90
29547;DHT22;40782;47.264;11.330;2023-11-18T06:58:30;3.50;99.90
29547;DHT22;40782;47.264;11.330;2023-11-18T07:00:57;3.50;99.90
29547;DHT22;40782;47.264;11.330;2023-11-18T07:03:24;3.50;99.90
29547;DHT22;40782;47.264;11.330;2023-11-18T07:05:51;3.50;99.90
29547;DHT22;40782;47.264;11.330;2023-11-18T07:08:19;3.50;99.90
29547;DHT22;40782;47.264;11.330;2023-11-18T07:10:46;3.50;99.90
29547;DHT22;40782;47.264;11.330;2023-11-18T07:13:15;3.50;99.90
29547;DHT22;40782;47.264;11.330;2023-11-18T07:15:43;3.50;99.90
29547;DHT22;40782;47.264;11.330;2023-11-18T07:18:10;3.50;99.90
29547;DHT22;40782;47.264;11.330;2023-11-18T07:20:37;3.50;99.90
29547;DHT22;40782;47.264;11.330;2023-11-18T07:23:04;3.50;99.90
29547;DHT22;40782;47.264;11.330;2023-11-18T07:25:34;3.50;99.90
29547;DHT22;40782;47.264;11.330;2023-11-18T07:28:01;3.50;99.90
29547;DHT22;40782;47.264;11.330;2023-11-18T07:30:29;3.60;99.90
29547;DHT22;40782;47.264;11.330;2023-11-18T07:32:56;3.60;99.90
29547;DHT22;40782;47.264;11.330;2023-11-18T07:35:26;3.60;99.90
29547;DHT22;40782;47.264;11.330;2023-11-18T07:37:53;3.70;99.90
29547;DHT22;40782;47.264;11.330;2023-11-18T07:40:20;3.70;99.90
29547;DHT22;40782;47.264;11.330;2023-11-18T07:42:53;3.70;99.90
29547;DHT22;40782;47.264;11.330;2023-11-18T07:45:21;3.70;99.90
29547;DHT22;40782;47.264;11.330;2023-11-18T07:47:50;3.80;99.90
29547;DHT22;40782;47.264;11.330;2023-11-18T07:50:17;3.80;99.90
29547;DHT22;40782;47.264;11.330;2023-11-18T07:52:45;3.80;99.90
29547;DHT22;40782;47.264;11.330;2023-11-18T07:55:12;3.80;99.90
29547;DHT22;40782;47.264;11.330;2023-11-18T07:57:39;3.90;99.90
29547;DHT22;40782;47.264;11.330;2023-11-18T08:00:08;3.90;99.90
29547;DHT22;40782;47.264;11.330;2023-11-18T08:02:35;3.90;99.90
29547;DHT22;40782;47.264;11.330;2023-11-18T08:05:04;3.90;99.90
29547;DHT22;40782;47.264;11.330;2023-11-18T08:07:33;4.00;99.90
29547;DHT22;40782;47.264;11.330;2023-11-18T08:10:01;4.00;99.90
29547;DHT22;40782;47.264;11.330;2023-11-18T08:12:29;4.20;99.90
29547;DHT22;40782;47.264;11.330;2023-11-18T08:14:56;4.20;99.90
29547;DHT22;40782;47.264;11.330;2023-11-18T08:17:23;4.30;99.90
29547;DHT22;40782;47.264;11.330;2023-11-18T08:19:51;4.30;99.90
29547;DHT22;40782;47.264;11.330;2023-11-18T08:22:19;4.40;99.90
29547;DHT22;40782;47.264;11.330;2023-11-18T08:24:48;4.50;99.90
29547;DHT22;40782;47.264;11.330;2023-11-18T08:27:15;4.50;99.90
29547;DHT22;40782;47.264;11.330;2023-11-18T08:29:42;4.50;99.90
29547;DHT22;40782;47.264;11.330;2023-11-18T08:32:10;4.50;99.90
29547;DHT22;40782;47.264;11.330;2023-11-18T08:34:37;4.60;99.90
29547;DHT22;40782;47.264;11.330;2023-11-18T08:37:06;4.60;99.90
29547;DHT22;40782;47.264;11.330;2023-11-18T08:39:35;4.70;99.90
29547;DHT22;40782;47.264;11.330;2023-11-18T08:42:02;4.70;99.90
29547;DHT22;40782;47.264;11.330;2023-11-18T08:44:29;4.80;99.90
29547;DHT22;40782;47.264;11.330;2023-11-18T08:46:58;4.90;99.90
29547;DHT22;40782;47.264;11.330;2023-11-18T08:49:25;5.00;99.90
29547;DHT22;40782;47.264;11.330;2023-11-18T08:51:55;5.10;99.90
29547;DHT22;40782;47.264;11.330;2023-11-18T08:54:23;5.10;99.90
29547;DHT22;40782;47.264;11.330;2023-11-18T08:56:52;5.20;99.90
29547;DHT22;40782;47.264;11.330;2023-11-18T08:59:19;5.30;99.90
29547;DHT22;40782;47.264;11.330;2023-11-18T09:01:50;5.40;99.90
29547;DHT22;40782;47.264;11.330;2023-11-18T09:04:21;5.60;99.90
29547;DHT22;40782;47.264;11.330;2023-11-18T09:06:49;5.70;99.90
29547;DHT22;40782;47.264;11.330;2023-11-18T09:09:17;5.70;99.90
29547;DHT22;40782;47.264;11.330;2023-11-18T09:11:53;5.90;99.90
29547;DHT22;40782;47.264;11.330;2023-11-18T09:14:22;6.10;99.90
29547;DHT22;40782;47.264;11.330;2023-11-18T09:16:51;6.30;99.90
29547;DHT22;40782;47.264;11.330;2023-11-18T09:19:20;6.40;99.90
29547;DHT22;40782;47.264;11.330;2023-11-18T09:21:47;6.50;99.90
29547;DHT22;40782;47.264;11.330;2023-11-18T09:24:14;6.60;99.90
29547;DHT22;40782;47.264;11.330;2023-11-18T09:26:45;6.80;99.90
29547;DHT22;40782;47.264;11.330;2023-11-18T09:29:14;6.90;99.90
29547;DHT22;40782;47.264;11.330;2023-11-18T09:31:43;6.90;99.90
29547;DHT22;40782;47.264;11.330;2023-11-18T09:34:13;7.00;99.90
29547;DHT22;40782;47.264;11.330;2023-11-18T09:36:42;7.20;99.90
29547;DHT22;40782;47.264;11.330;2023-11-18T09:39:09;7.40;99.90
29547;DHT22;40782;47.264;11.330;2023-11-18T09:41:41;7.60;99.90
29547;DHT22;40782;47.264;11.330;2023-11-18T09:44:09;7.80;99.90
29547;DHT22;40782;47.264;11.330;2023-11-18T09:46:39;7.90;99.90
29547;DHT22;40782;47.264;11.330;2023-11-18T09:49:12;8.00;99.90
29547;DHT22;40782;47.264;11.330;2023-11-18T09:51:43;8.10;99.90
29547;DHT22;40782;47.264;11.330;2023-11-18T09:54:15;8.20;99.90
29547;DHT22;40782;47.264;11.330;2023-11-18T09:56:45;8.40;99.90
29547;DHT22;40782;47.264;11.330;2023-11-18T09:59:16;8.40;99.90
29547;DHT22;40782;47.264;11.330;2023-11-18T10:01:48;8.40;99.90
29547;DHT22;40782;47.264;11.330;2023-11-18T10:04:19;8.30;99.90
29547;DHT22;40782;47.264;11.330;2023-11-18T10:06:46;8.30;99.90
29547;DHT22;40782;47.264;11.330;2023-11-18T10:09:15;8.40;99.90
29547;DHT22;40782;47.264;11.330;2023-11-18T10:11:43;8.50;99.90
29547;DHT22;40782;47.264;11.330;2023-11-18T10:14:12;8.60;99.90
29547;DHT22;40782;47.264;11.330;2023-11-18T10:16:41;8.80;99.90
29547;DHT22;40782;47.264;11.330;2023-11-18T10:19:12;8.90;99.90
29547;DHT22;40782;47.264;11.330;2023-11-18T10:21:39;9.10;99.90
29547;DHT22;40782;47.264;11.330;2023-11-18T10:24:07;9.30;99.90
29547;DHT22;40782;47.264;11.330;2023-11-18T10:26:40;9.50;99.90
29547;DHT22;40782;47.264;11.330;2023-11-18T10:29:07;9.50;99.90
29547;DHT22;40782;47.264;11.330;2023-11-18T10:31:36;9.50;99.90
29547;DHT22;40782;47.264;11.330;2023-11-18T10:34:03;9.60;99.90
29547;DHT22;40782;47.264;11.330;2023-11-18T10:36:32;9.70;99.90
29547;DHT22;40782;47.264;11.330;2023-11-18T10:39:01;9.90;99.90
29547;DHT22;40782;47.264;11.330;2023-11-18T10:41:39;10.00;99.90
29547;DHT22;40782;47.264;11.330;2023-11-18T10:44:08;10.10;99.90
29547;DHT22;40782;47.264;11.330;2023-11-18T10:46:40;10.40;99.90
29547;DHT22;40782;47.264;11.330;2023-11-18T10:49:07;10.70;99.90
29547;DHT22;40782;47.264;11.330;2023-11-18T10:51:36;10.90;99.90
29547;DHT22;40782;47.264;11.330;2023-11-18T10:54:04;11.10;99.90
29547;DHT22;40782;47.264;11.330;2023-11-18T10:56:45;11.40;99.90
29547;DHT22;40782;47.264;11.330;2023-11-18T10:59:13;11.50;99.90
29547;DHT22;40782;47.264;11.330;2023-11-18T11:01:42;11.70;99.90
29547;DHT22;40782;47.264;11.330;2023-11-18T11:04:09;11.90;99.90
29547;DHT22;40782;47.264;11.330;2023-11-18T11:06:40;12.00;99.90
29547;DHT22;40782;47.264;11.330;2023-11-18T11:09:07;12.10;99.90
29547;DHT22;40782;47.264;11.330;2023-11-18T11:11:45;12.30;99.90
29547;DHT22;40782;47.264;11.330;2023-11-18T11:14:13;12.70;99.90
29547;DHT22;40782;47.264;11.330;2023-11-18T11:16:42;13.10;99.90
29547;DHT22;40782;47.264;11.330;2023-11-18T11:19:13;13.40;99.90
29547;DHT22;40782;47.264;11.330;2023-11-18T11:21:50;13.40;99.90
29547;DHT22;40782;47.264;11.330;2023-11-18T11:24:20;13.70;99.90
29547;DHT22;40782;47.264;11.330;2023-11-18T11:27:01;14.00;99.90
29547;DHT22;40782;47.264;11.330;2023-11-18T11:29:36;14.40;99.90
29547;DHT22;40782;47.264;11.330;2023-11-18T11:32:11;14.80;99.90
29547;DHT22;40782;47.264;11.330;2023-11-18T11:34:46;15.00;99.90
29547;DHT22;40782;47.264;11.330;2023-11-18T11:37:18;15.30;99.80
29547;DHT22;40782;47.264;11.330;2023-11-18T11:39:46;15.50;98.20
29547;DHT22;40782;47.264;11.330;2023-11-18T11:42:14;15.30;97.00
29547;DHT22;40782;47.264;11.330;2023-11-18T11:44:43;15.10;96.90
29547;DHT22;40782;47.264;11.330;2023-11-18T11:47:10;14.40;97.30
29547;DHT22;40782;47.264;11.330;2023-11-18T11:49:43;14.40;96.80
29547;DHT22;40782;47.264;11.330;2023-11-18T11:52:13;14.40;97.50
29547;DHT22;40782;47.264;11.330;2023-11-18T11:54:45;14.10;95.60
29547;DHT22;40782;47.264;11.330;2023-11-18T11:57:15;14.10;98.40
29547;DHT22;40782;47.264;11.330;2023-11-18T11:59:56;13.70;95.60
29547;DHT22;40782;47.264;11.330;2023-11-18T12:02:24;13.90;98.90
29547;DHT22;40782;47.264;11.330;2023-11-18T12:04:54;14.10;95.70
29547;DHT22;40782;47.264;11.330;2023-11-18T12:07:25;14.10;97.80
29547;DHT22;40782;47.264;11.330;2023-11-18T12:09:56;14.20;96.00
29547;DHT22;40782;47.264;11.330;2023-11-18T12:12:24;13.80;93.30
29547;DHT22;40782;47.264;11.330;2023-11-18T12:14:52;13.40;94.70
29547;DHT22;40782;47.264;11.330;2023-11-18T12:17:21;13.50;96.20
29547;DHT22;40782;47.264;11.330;2023-11-18T12:19:50;13.70;92.50
29547;DHT22;40782;47.264;11.330;2023-11-18T12:22:24;13.90;93.60
29547;DHT22;40782;47.264;11.330;2023-11-18T12:27:43;14.10;94.90
29547;DHT22;40782;47.264;11.330;2023-11-18T12:33:21;13.90;91.60
29547;DHT22;40782;47.264;11.330;2023-11-18T12:36:06;13.70;93.30
29547;DHT22;40782;47.264;11.330;2023-11-18T12:38:49;13.60;92.60
29547;DHT22;40782;47.264;11.330;2023-11-18T12:41:28;13.60;91.80
29547;DHT22;40782;47.264;11.330;2023-11-18T12:44:05;13.40;91.90
29547;DHT22;40782;47.264;11.330;2023-11-18T12:46:44;13.20;91.10
29547;DHT22;40782;47.264;11.330;2023-11-18T12:49:15;13.00;91.60
29547;DHT22;40782;47.264;11.330;2023-11-18T12:51:42;13.00;91.70
29547;DHT22;40782;47.264;11.330;2023-11-18T12:54:10;12.90;93.50
29547;DHT22;40782;47.264;11.330;2023-11-18T12:56:38;12.90;91.90
29547;DHT22;40782;47.264;11.330;2023-11-18T12:59:11;12.80;92.70
29547;DHT22;40782;47.264;11.330;2023-11-18T13:01:38;12.80;91.80
29547;DHT22;40782;47.264;11.330;2023-11-18T13:04:07;13.00;92.80
29547;DHT22;40782;47.264;11.330;2023-11-18T13:06:35;13.10;93.90
29547;DHT22;40782;47.264;11.330;2023-11-18T13:09:02;13.20;93.10
29547;DHT22;40782;47.264;11.330;2023-11-18T13:11:35;13.20;94.20
29547;DHT22;40782;47.264;11.330;2023-11-18T13:14:04;13.00;92.60
29547;DHT22;40782;47.264;11.330;2023-11-18T13:16:32;12.80;92.20
29547;DHT22;40782;47.264;11.330;2023-11-18T13:18:59;12.50;94.70
29547;DHT22;40782;47.264;11.330;2023-11-18T13:21:26;12.20;92.80
29547;DHT22;40782;47.264;11.330;2023-11-18T13:23:56;11.80;95.00
29547;DHT22;40782;47.264;11.330;2023-11-18T13:26:23;11.60;94.20
29547;DHT22;40782;47.264;11.330;2023-11-18T13:28:50;11.30;95.00
29547;DHT22;40782;47.264;11.330;2023-11-18T13:31:17;11.10;96.40
29547;DHT22;40782;47.264;11.330;2023-11-18T13:33:47;10.90;95.40
29547;DHT22;40782;47.264;11.330;2023-11-18T13:36:14;10.80;98.80
29547;DHT22;40782;47.264;11.330;2023-11-18T13:38:41;10.80;97.00
29547;DHT22;40782;47.264;11.330;2023-11-18T13:41:09;10.70;97.20
29547;DHT22;40782;47.264;11.330;2023-11-18T13:43:42;10.50;94.70
29547;DHT22;40782;47.264;11.330;2023-11-18T13:46:12;10.40;96.10
29547;DHT22;40782;47.264;11.330;2023-11-18T13:48:40;10.20;98.70
29547;DHT22;40782;47.264;11.330;2023-11-18T13:51:09;10.10;99.90
29547;DHT22;40782;47.264;11.330;2023-11-18T13:53:39;10.00;97.70
29547;DHT22;40782;47.264;11.330;2023-11-18T13:56:09;9.90;98.70
29547;DHT22;40782;47.264;11.330;2023-11-18T13:58:36;10.00;99.90
29547;DHT22;40782;47.264;11.330;2023-11-18T14:01:05;10.00;99.90
29547;DHT22;40782;47.264;11.330;2023-11-18T14:03:33;10.00;99.90
29547;DHT22;40782;47.264;11.330;2023-11-18T14:06:02;10.00;99.90
29547;DHT22;40782;47.264;11.330;2023-11-18T14:08:31;9.90;99.90
29547;DHT22;40782;47.264;11.330;2023-11-18T14:10:59;9.90;99.90
29547;DHT22;40782;47.264;11.330;2023-11-18T14:13:27;9.80;99.90
29547;DHT22;40782;47.264;11.330;2023-11-18T14:15:56;9.50;99.90
29547;DHT22;40782;47.264;11.330;2023-11-18T14:18:24;9.40;99.90
29547;DHT22;40782;47.264;11.330;2023-11-18T14:20:52;9.30;99.90
29547;DHT22;40782;47.264;11.330;2023-11-18T14:23:20;9.30;99.90
29547;DHT22;40782;47.264;11.330;2023-11-18T14:25:49;9.30;99.90
29547;DHT22;40782;47.264;11.330;2023-11-18T14:28:17;9.30;99.90
29547;DHT22;40782;47.264;11.330;2023-11-18T14:30:44;9.50;99.90
29547;DHT22;40782;47.264;11.330;2023-11-18T14:33:12;9.50;99.90
29547;DHT22;40782;47.264;11.330;2023-11-18T14:35:39;9.50;99.90
29547;DHT22;40782;47.264;11.330;2023-11-18T14:38:07;9.60;99.90
29547;DHT22;40782;47.264;11.330;2023-11-18T14:40:34;9.70;99.90
29547;DHT22;40782;47.264;11.330;2023-11-18T14:43:03;9.60;99.90
29547;DHT22;40782;47.264;11.330;2023-11-18T14:45:30;9.50;99.90
29547;DHT22;40782;47.264;11.330;2023-11-18T14:47:58;9.40;99.90
29547;DHT22;40782;47.264;11.330;2023-11-18T14:50:25;9.20;99.90
29547;DHT22;40782;47.264;11.330;2023-11-18T14:52:53;9.20;99.90
29547;DHT22;40782;47.264;11.330;2023-11-18T14:55:25;9.00;99.90
29547;DHT22;40782;47.264;11.330;2023-11-18T14:57:52;8.80;99.90
29547;DHT22;40782;47.264;11.330;2023-11-18T15:00:21;8.70;99.90
29547;DHT22;40782;47.264;11.330;2023-11-18T15:02:51;8.50;99.90
29547;DHT22;40782;47.264;11.330;2023-11-18T15:05:18;8.40;99.90
29547;DHT22;40782;47.264;11.330;2023-11-18T15:07:46;8.30;99.90
29547;DHT22;40782;47.264;11.330;2023-11-18T15:10:14;8.20;99.90
29547;DHT22;40782;47.264;11.330;2023-11-18T15:12:45;8.10;99.90
29547;DHT22;40782;47.264;11.330;2023-11-18T15:15:12;8.00;99.90
29547;DHT22;40782;47.264;11.330;2023-11-18T15:17:46;7.90;99.90
29547;DHT22;40782;47.264;11.330;2023-11-18T15:20:14;7.80;99.90
29547;DHT22;40782;47.264;11.330;2023-11-18T15:22:44;7.70;99.90
29547;DHT22;40782;47.264;11.330;2023-11-18T15:25:11;7.60;99.90
29547;DHT22;40782;47.264;11.330;2023-11-18T15:27:40;7.50;99.90
29547;DHT22;40782;47.264;11.330;2023-11-18T15:30:07;7.40;99.90
29547;DHT22;40782;47.264;11.330;2023-11-18T15:32:37;7.40;99.90
29547;DHT22;40782;47.264;11.330;2023-11-18T15:35:06;7.40;99.90
29547;DHT22;40782;47.264;11.330;2023-11-18T15:37:36;7.20;99.90
29547;DHT22;40782;47.264;11.330;2023-11-18T15:40:04;7.10;99.90
29547;DHT22;40782;47.264;11.330;2023-11-18T15:42:37;7.00;99.90